sensor_id;sensor_type;location;lat;lon;timestamp;pressure;altitude;pressure_sealevel;temperature;humidity
46690;BME280;32423;45.398;10.874;2023-03-12T00:01:40;99807.00;;;13.98;43.76
46690;BME280;32423;45.398;10.874;2023-03-12T00:04:30;99807.50;;;14.03;42.45
46690;BME280;32423;45.398;10.874;2023-03-12T00:07:22;99804.34;;;14.01;41.30
46690;BME280;32423;45.398;10.874;2023-03-12T00:10:17;99809.31;;;13.96;42.04
46690;BME280;32423;45.398;10.874;2023-03-12T00:13:11;99811.97;;;13.92;41.96
46690;BME280;32423;45.398;10.874;2023-03-12T00:16:06;99820.81;;;13.86;41.79
46690;BME280;32423;45.398;10.874;2023-03-12T00:19:01;99821.97;;;13.85;40.88
46690;BME280;32423;45.398;10.874;2023-03-12T00:21:56;99831.16;;;13.77;40.90
46690;BME280;32423;45.398;10.874;2023-03-12T00:24:50;99833.41;;;13.71;40.62
46690;BME280;32423;45.398;10.874;2023-03-12T00:27:45;99845.03;;;13.68;40.62
46690;BME280;32423;45.398;10.874;2023-03-12T00:30:37;99845.66;;;13.61;40.85
46690;BME280;32423;45.398;10.874;2023-03-12T00:33:31;99856.00;;;13.71;41.12
46690;BME280;32423;45.398;10.874;2023-03-12T00:36:26;99859.69;;;13.60;41.14
46690;BME280;32423;45.398;10.874;2023-03-12T00:39:21;99863.22;;;13.60;41.30
46690;BME280;32423;45.398;10.874;2023-03-12T00:42:15;99860.13;;;13.46;41.31
46690;BME280;32423;45.398;10.874;2023-03-12T00:45:08;99852.31;;;13.45;41.55
46690;BME280;32423;45.398;10.874;2023-03-12T00:48:03;99862.44;;;13.44;41.91
46690;BME280;32423;45.398;10.874;2023-03-12T00:50:55;99861.41;;;13.33;42.27
46690;BME280;32423;45.398;10.874;2023-03-12T00:53:49;99867.56;;;13.30;42.22
46690;BME280;32423;45.398;10.874;2023-03-12T00:56:44;99866.00;;;13.29;42.54
46690;BME280;32423;45.398;10.874;2023-03-12T00:59:39;99876.31;;;13.20;43.06
46690;BME280;32423;45.398;10.874;2023-03-12T01:02:33;99873.84;;;13.15;43.47
46690;BME280;32423;45.398;10.874;2023-03-12T01:05:28;99877.38;;;13.15;43.51
46690;BME280;32423;45.398;10.874;2023-03-12T01:08:22;99886.47;;;13.07;43.44
46690;BME280;32423;45.398;10.874;2023-03-12T01:11:20;99877.44;;;13.19;43.33
46690;BME280;32423;45.398;10.874;2023-03-12T01:14:15;99887.50;;;13.15;43.67
46690;BME280;32423;45.398;10.874;2023-03-12T01:17:07;99886.47;;;13.07;43.98
46690;BME280;32423;45.398;10.874;2023-03-12T01:19:59;99903.19;;;13.06;43.92
46690;BME280;32423;45.398;10.874;2023-03-12T01:22:51;99893.63;;;13.12;44.00
46690;BME280;32423;45.398;10.874;2023-03-12T01:25:45;99903.44;;;13.01;44.72
46690;BME280;32423;45.398;10.874;2023-03-12T01:28:40;99906.72;;;13.06;44.80
46690;BME280;32423;45.398;10.874;2023-03-12T01:31:34;99923.09;;;13.06;45.23
46690;BME280;32423;45.398;10.874;2023-03-12T01:34:29;99917.47;;;12.99;45.24
46690;BME280;32423;45.398;10.874;2023-03-12T01:37:24;99923.53;;;12.93;45.13
46690;BME280;32423;45.398;10.874;2023-03-12T01:40:22;99929.97;;;13.00;45.36
46690;BME280;32423;45.398;10.874;2023-03-12T01:43:29;99924.41;;;12.97;45.35
46690;BME280;32423;45.398;10.874;2023-03-12T01:46:33;99934.44;;;12.93;45.60
46690;BME280;32423;45.398;10.874;2023-03-12T01:49:31;99933.81;;;12.83;45.57
46690;BME280;32423;45.398;10.874;2023-03-12T01:52:30;99937.44;;;12.88;45.50
46690;BME280;32423;45.398;10.874;2023-03-12T01:55:22;99949.81;;;12.85;45.54
46690;BME280;32423;45.398;10.874;2023-03-12T01:58:14;99954.50;;;12.84;45.37
46690;BME280;32423;45.398;10.874;2023-03-12T02:01:06;99949.38;;;12.83;45.60
46690;BME280;32423;45.398;10.874;2023-03-12T02:03:55;99955.00;;;12.74;45.88
46690;BME280;32423;45.398;10.874;2023-03-12T02:06:50;99955.25;;;12.69;46.06
46690;BME280;32423;45.398;10.874;2023-03-12T02:09:43;99953.47;;;12.61;46.42
46690;BME280;32423;45.398;10.874;2023-03-12T02:12:36;99960.84;;;12.61;46.69
46690;BME280;32423;45.398;10.874;2023-03-12T02:15:28;99977.09;;;12.69;46.49
46690;BME280;32423;45.398;10.874;2023-03-12T02:18:20;99974.16;;;12.62;46.94
46690;BME280;32423;45.398;10.874;2023-03-12T02:21:15;99981.88;;;12.60;46.68
46690;BME280;32423;45.398;10.874;2023-03-12T02:24:12;99990.78;;;12.45;46.99
46690;BME280;32423;45.398;10.874;2023-03-12T02:27:07;99994.44;;;12.49;47.01
46690;BME280;32423;45.398;10.874;2023-03-12T02:29:58;100000.38;;;12.39;47.42
46690;BME280;32423;45.398;10.874;2023-03-12T02:32:51;100000.78;;;12.53;46.89
46690;BME280;32423;45.398;10.874;2023-03-12T02:35:45;100004.97;;;12.51;46.74
46690;BME280;32423;45.398;10.874;2023-03-12T02:38:37;99996.41;;;12.64;46.50
46690;BME280;32423;45.398;10.874;2023-03-12T02:41:29;100004.72;;;12.56;46.52
46690;BME280;32423;45.398;10.874;2023-03-12T02:44:22;100008.81;;;12.50;46.88
46690;BME280;32423;45.398;10.874;2023-03-12T02:47:16;100008.72;;;12.46;47.21
46690;BME280;32423;45.398;10.874;2023-03-12T02:50:08;100017.38;;;12.48;47.34
46690;BME280;32423;45.398;10.874;2023-03-12T02:53:00;100008.31;;;12.44;47.62
46690;BME280;32423;45.398;10.874;2023-03-12T02:55:52;100010.56;;;12.30;48.33
46690;BME280;32423;45.398;10.874;2023-03-12T02:58:43;100017.63;;;12.31;48.26
46690;BME280;32423;45.398;10.874;2023-03-12T03:01:35;100022.50;;;12.37;48.25
46690;BME280;32423;45.398;10.874;2023-03-12T03:04:27;100031.72;;;12.33;48.37
46690;BME280;32423;45.398;10.874;2023-03-12T03:07:20;100027.06;;;12.33;48.50
46690;BME280;32423;45.398;10.874;2023-03-12T03:10:12;100035.25;;;12.33;48.23
46690;BME280;32423;45.398;10.874;2023-03-12T03:13:03;100041.59;;;12.25;48.45
46690;BME280;32423;45.398;10.874;2023-03-12T03:15:55;100055.13;;;12.22;48.46
46690;BME280;32423;45.398;10.874;2023-03-12T03:18:48;100064.00;;;12.19;48.55
46690;BME280;32423;45.398;10.874;2023-03-12T03:21:40;100067.63;;;12.23;48.47
46690;BME280;32423;45.398;10.874;2023-03-12T03:24:32;100072.06;;;12.27;48.83
46690;BME280;32423;45.398;10.874;2023-03-12T03:27:21;100070.59;;;12.18;49.28
46690;BME280;32423;45.398;10.874;2023-03-12T03:30:13;100079.66;;;12.22;49.07
46690;BME280;32423;45.398;10.874;2023-03-12T03:33:06;100076.13;;;12.21;47.94
46690;BME280;32423;45.398;10.874;2023-03-12T03:35:58;100078.28;;;12.16;47.68
46690;BME280;32423;45.398;10.874;2023-03-12T03:38:50;100072.16;;;12.07;46.92
46690;BME280;32423;45.398;10.874;2023-03-12T03:41:42;100092.84;;;12.08;47.09
46690;BME280;32423;45.398;10.874;2023-03-12T03:44:35;100094.44;;;12.09;47.04
46690;BME280;32423;45.398;10.874;2023-03-12T03:47:27;100105.13;;;12.14;46.35
46690;BME280;32423;45.398;10.874;2023-03-12T03:50:17;100113.63;;;12.12;46.68
46690;BME280;32423;45.398;10.874;2023-03-12T03:53:09;100115.66;;;12.15;46.37
46690;BME280;32423;45.398;10.874;2023-03-12T03:56:07;100116.78;;;12.02;45.94
46690;BME280;32423;45.398;10.874;2023-03-12T03:59:00;100127.47;;;12.07;45.57
46690;BME280;32423;45.398;10.874;2023-03-12T04:01:50;100135.09;;;12.14;45.75
46690;BME280;32423;45.398;10.874;2023-03-12T04:04:42;100143.72;;;12.16;46.22
46690;BME280;32423;45.398;10.874;2023-03-12T04:07:34;100136.88;;;12.10;45.81
46690;BME280;32423;45.398;10.874;2023-03-12T04:10:26;100131.44;;;12.10;46.14
46690;BME280;32423;45.398;10.874;2023-03-12T04:13:18;100137.13;;;12.17;45.79
46690;BME280;32423;45.398;10.874;2023-03-12T04:16:10;100152.56;;;12.13;45.93
46690;BME280;32423;45.398;10.874;2023-03-12T04:19:00;100158.69;;;12.10;46.23
46690;BME280;32423;45.398;10.874;2023-03-12T04:21:52;100160.38;;;12.14;46.02
46690;BME280;32423;45.398;10.874;2023-03-12T04:24:44;100166.28;;;12.04;45.80
46690;BME280;32423;45.398;10.874;2023-03-12T04:27:36;100167.22;;;12.08;45.76
46690;BME280;32423;45.398;10.874;2023-03-12T04:30:28;100168.25;;;12.04;45.66
46690;BME280;32423;45.398;10.874;2023-03-12T04:33:20;100181.50;;;12.05;45.74
46690;BME280;32423;45.398;10.874;2023-03-12T04:36:13;100188.78;;;12.01;45.69
46690;BME280;32423;45.398;10.874;2023-03-12T04:39:06;100185.22;;;11.88;45.78
46690;BME280;32423;45.398;10.874;2023-03-12T04:41:58;100187.38;;;11.95;45.64
46690;BME280;32423;45.398;10.874;2023-03-12T04:44:49;100186.81;;;11.89;45.53
46690;BME280;32423;45.398;10.874;2023-03-12T04:47:41;100196.19;;;11.80;46.16
46690;BME280;32423;45.398;10.874;2023-03-12T04:50:33;100204.75;;;11.90;45.61
46690;BME280;32423;45.398;10.874;2023-03-12T04:53:25;100209.16;;;11.83;45.86
46690;BME280;32423;45.398;10.874;2023-03-12T04:56:18;100215.75;;;11.94;45.59
46690;BME280;32423;45.398;10.874;2023-03-12T04:59:10;100214.53;;;11.91;45.63
46690;BME280;32423;45.398;10.874;2023-03-12T05:02:02;100225.16;;;11.84;46.07
46690;BME280;32423;45.398;10.874;2023-03-12T05:04:54;100236.25;;;11.79;45.96
46690;BME280;32423;45.398;10.874;2023-03-12T05:07:46;100244.22;;;11.84;45.92
46690;BME280;32423;45.398;10.874;2023-03-12T05:10:36;100244.22;;;11.84;45.96
46690;BME280;32423;45.398;10.874;2023-03-12T05:13:30;100253.28;;;11.76;46.39
46690;BME280;32423;45.398;10.874;2023-03-12T05:16:22;100252.41;;;11.84;46.30
46690;BME280;32423;45.398;10.874;2023-03-12T05:19:14;100262.38;;;11.80;46.60
46690;BME280;32423;45.398;10.874;2023-03-12T05:22:06;100267.38;;;11.78;46.22
46690;BME280;32423;45.398;10.874;2023-03-12T05:24:58;100269.75;;;11.80;46.21
46690;BME280;32423;45.398;10.874;2023-03-12T05:27:51;100272.63;;;11.83;46.35
46690;BME280;32423;45.398;10.874;2023-03-12T05:30:44;100281.13;;;11.82;46.55
46690;BME280;32423;45.398;10.874;2023-03-12T05:33:33;100273.53;;;11.87;45.93
46690;BME280;32423;45.398;10.874;2023-03-12T05:36:25;100270.75;;;11.75;46.50
46690;BME280;32423;45.398;10.874;2023-03-12T05:39:17;100261.34;;;11.73;46.81
46690;BME280;32423;45.398;10.874;2023-03-12T05:42:09;100272.03;;;11.78;46.57
46690;BME280;32423;45.398;10.874;2023-03-12T05:45:02;100275.25;;;11.71;46.84
46690;BME280;32423;45.398;10.874;2023-03-12T05:47:55;100284.09;;;11.68;46.67
46690;BME280;32423;45.398;10.874;2023-03-12T05:50:48;100292.72;;;11.70;46.96
46690;BME280;32423;45.398;10.874;2023-03-12T05:53:40;100289.81;;;11.75;46.66
46690;BME280;32423;45.398;10.874;2023-03-12T05:56:29;100301.53;;;11.76;46.66
46690;BME280;32423;45.398;10.874;2023-03-12T05:59:21;100306.50;;;11.74;47.15
46690;BME280;32423;45.398;10.874;2023-03-12T06:02:13;100309.50;;;11.81;46.88
46690;BME280;32423;45.398;10.874;2023-03-12T06:05:05;100313.22;;;11.76;46.87
46690;BME280;32423;45.398;10.874;2023-03-12T06:07:57;100323.16;;;11.72;47.17
46690;BME280;32423;45.398;10.874;2023-03-12T06:10:49;100319.72;;;11.84;47.08
46690;BME280;32423;45.398;10.874;2023-03-12T06:13:42;100330.75;;;11.87;47.24
46690;BME280;32423;45.398;10.874;2023-03-12T06:16:33;100332.34;;;11.88;47.57
46690;BME280;32423;45.398;10.874;2023-03-12T06:19:26;100342.78;;;11.86;47.09
46690;BME280;32423;45.398;10.874;2023-03-12T06:22:18;100340.06;;;11.86;47.49
46690;BME280;32423;45.398;10.874;2023-03-12T06:25:10;100337.41;;;11.98;46.99
46690;BME280;32423;45.398;10.874;2023-03-12T06:28:02;100351.75;;;12.08;47.89
46690;BME280;32423;45.398;10.874;2023-03-12T06:30:54;100345.16;;;12.09;47.00
46690;BME280;32423;45.398;10.874;2023-03-12T06:33:47;100350.84;;;12.16;47.36
46690;BME280;32423;45.398;10.874;2023-03-12T06:36:39;100358.13;;;12.12;47.21
46690;BME280;32423;45.398;10.874;2023-03-12T06:39:30;100368.75;;;12.05;47.10
46690;BME280;32423;45.398;10.874;2023-03-12T06:42:22;100379.41;;;12.18;47.52
46690;BME280;32423;45.398;10.874;2023-03-12T06:45:15;100372.53;;;12.33;48.45
46690;BME280;32423;45.398;10.874;2023-03-12T06:48:07;100367.81;;;12.54;46.61
46690;BME280;32423;45.398;10.874;2023-03-12T06:50:59;100368.97;;;12.53;46.48
46690;BME280;32423;45.398;10.874;2023-03-12T06:53:51;100377.47;;;12.52;46.85
46690;BME280;32423;45.398;10.874;2023-03-12T06:56:43;100387.38;;;12.56;46.13
46690;BME280;32423;45.398;10.874;2023-03-12T06:59:35;100392.28;;;12.63;46.20
46690;BME280;32423;45.398;10.874;2023-03-12T07:02:27;100396.25;;;12.65;46.26
46690;BME280;32423;45.398;10.874;2023-03-12T07:05:19;100395.81;;;12.63;45.41
46690;BME280;32423;45.398;10.874;2023-03-12T07:08:11;100394.38;;;12.78;45.84
46690;BME280;32423;45.398;10.874;2023-03-12T07:11:03;100385.59;;;12.72;45.58
46690;BME280;32423;45.398;10.874;2023-03-12T07:13:54;100384.09;;;12.75;45.40
46690;BME280;32423;45.398;10.874;2023-03-12T07:16:46;100387.09;;;12.82;45.15
46690;BME280;32423;45.398;10.874;2023-03-12T07:19:38;100404.00;;;12.75;45.65
46690;BME280;32423;45.398;10.874;2023-03-12T07:22:30;100411.31;;;12.83;45.24
46690;BME280;32423;45.398;10.874;2023-03-12T07:25:22;100412.56;;;12.86;45.14
46690;BME280;32423;45.398;10.874;2023-03-12T07:28:14;100416.91;;;12.87;45.05
46690;BME280;32423;45.398;10.874;2023-03-12T07:31:07;100427.72;;;12.96;44.74
46690;BME280;32423;45.398;10.874;2023-03-12T07:33:59;100432.50;;;12.99;45.09
46690;BME280;32423;45.398;10.874;2023-03-12T07:36:51;100439.44;;;12.96;45.45
46690;BME280;32423;45.398;10.874;2023-03-12T07:39:40;100423.69;;;13.14;44.11
46690;BME280;32423;45.398;10.874;2023-03-12T07:42:32;100440.69;;;13.11;44.16
46690;BME280;32423;45.398;10.874;2023-03-12T07:45:24;100439.84;;;13.19;43.46
46690;BME280;32423;45.398;10.874;2023-03-12T07:48:15;100447.25;;;13.18;43.07
46690;BME280;32423;45.398;10.874;2023-03-12T07:51:07;100457.41;;;13.30;43.91
46690;BME280;32423;45.398;10.874;2023-03-12T07:53:59;100471.28;;;13.37;42.80
46690;BME280;32423;45.398;10.874;2023-03-12T07:56:51;100456.72;;;13.33;42.54
46690;BME280;32423;45.398;10.874;2023-03-12T07:59:43;100454.91;;;13.49;42.10
46690;BME280;32423;45.398;10.874;2023-03-12T08:02:35;100459.91;;;13.59;41.10
46690;BME280;32423;45.398;10.874;2023-03-12T08:05:27;100463.56;;;13.63;42.03
46690;BME280;32423;45.398;10.874;2023-03-12T08:08:19;100469.47;;;13.78;41.74
46690;BME280;32423;45.398;10.874;2023-03-12T08:11:08;100461.84;;;13.59;41.84
46690;BME280;32423;45.398;10.874;2023-03-12T08:13:57;100477.66;;;13.29;42.82
46690;BME280;32423;45.398;10.874;2023-03-12T08:16:50;100465.50;;;13.06;42.81
46690;BME280;32423;45.398;10.874;2023-03-12T08:19:42;100475.56;;;13.26;42.88
46690;BME280;32423;45.398;10.874;2023-03-12T08:22:34;100477.75;;;13.33;42.38
46690;BME280;32423;45.398;10.874;2023-03-12T08:25:26;100480.81;;;13.19;42.44
46690;BME280;32423;45.398;10.874;2023-03-12T08:28:16;100481.72;;;13.23;41.81
46690;BME280;32423;45.398;10.874;2023-03-12T08:31:05;100481.63;;;12.99;42.17
46690;BME280;32423;45.398;10.874;2023-03-12T08:33:57;100495.31;;;13.11;42.56
46690;BME280;32423;45.398;10.874;2023-03-12T08:36:49;100488.94;;;13.07;42.28
46690;BME280;32423;45.398;10.874;2023-03-12T08:39:41;100501.38;;;13.16;42.58
46690;BME280;32423;45.398;10.874;2023-03-12T08:42:34;100505.16;;;13.24;42.37
46690;BME280;32423;45.398;10.874;2023-03-12T08:45:25;100510.91;;;13.43;40.90
46690;BME280;32423;45.398;10.874;2023-03-12T08:48:18;100514.56;;;13.59;41.01
46690;BME280;32423;45.398;10.874;2023-03-12T08:51:10;100518.19;;;13.63;41.06
46690;BME280;32423;45.398;10.874;2023-03-12T08:54:02;100514.13;;;13.69;40.26
46690;BME280;32423;45.398;10.874;2023-03-12T08:56:54;100521.75;;;13.76;39.75
46690;BME280;32423;45.398;10.874;2023-03-12T08:59:46;100529.81;;;13.97;39.91
46690;BME280;32423;45.398;10.874;2023-03-12T09:02:41;100527.31;;;13.92;39.57
46690;BME280;32423;45.398;10.874;2023-03-12T09:05:33;100518.88;;;13.97;39.49
46690;BME280;32423;45.398;10.874;2023-03-12T09:08:23;100509.91;;;13.96;39.15
46690;BME280;32423;45.398;10.874;2023-03-12T09:11:15;100522.78;;;13.96;39.42
46690;BME280;32423;45.398;10.874;2023-03-12T09:14:07;100524.13;;;13.90;38.17
46690;BME280;32423;45.398;10.874;2023-03-12T09:16:59;100521.63;;;14.09;39.38
46690;BME280;32423;45.398;10.874;2023-03-12T09:19:51;100527.09;;;13.97;39.18
46690;BME280;32423;45.398;10.874;2023-03-12T09:22:40;100535.53;;;14.04;38.46
46690;BME280;32423;45.398;10.874;2023-03-12T09:25:30;100534.38;;;13.93;38.83
46690;BME280;32423;45.398;10.874;2023-03-12T09:28:20;100546.78;;;14.14;39.17
46690;BME280;32423;45.398;10.874;2023-03-12T09:31:12;100552.69;;;14.29;38.46
46690;BME280;32423;45.398;10.874;2023-03-12T09:34:04;100568.44;;;14.56;37.07
46690;BME280;32423;45.398;10.874;2023-03-12T09:36:56;100567.66;;;14.83;38.89
46690;BME280;32423;45.398;10.874;2023-03-12T09:39:47;100573.44;;;14.54;36.47
46690;BME280;32423;45.398;10.874;2023-03-12T09:42:47;100572.63;;;14.66;36.34
46690;BME280;32423;45.398;10.874;2023-03-12T09:45:40;100572.06;;;14.48;35.74
46690;BME280;32423;45.398;10.874;2023-03-12T09:48:35;100568.78;;;14.54;37.13
46690;BME280;32423;45.398;10.874;2023-03-12T09:51:35;100573.78;;;14.28;36.90
46690;BME280;32423;45.398;10.874;2023-03-12T09:54:35;100582.13;;;14.44;35.30
46690;BME280;32423;45.398;10.874;2023-03-12T09:57:26;100578.81;;;14.50;35.03
46690;BME280;32423;45.398;10.874;2023-03-12T10:00:14;100581.06;;;14.73;34.80
46690;BME280;32423;45.398;10.874;2023-03-12T10:03:22;100584.69;;;15.05;34.63
46690;BME280;32423;45.398;10.874;2023-03-12T10:06:16;100568.28;;;14.77;34.78
46690;BME280;32423;45.398;10.874;2023-03-12T10:09:13;100563.91;;;14.88;34.10
46690;BME280;32423;45.398;10.874;2023-03-12T10:12:19;100562.31;;;14.87;34.86
46690;BME280;32423;45.398;10.874;2023-03-12T10:21:26;100560.38;;;15.31;33.70
46690;BME280;32423;45.398;10.874;2023-03-12T10:24:25;100556.00;;;15.14;34.34
46690;BME280;32423;45.398;10.874;2023-03-12T10:27:19;100552.13;;;15.15;34.24
46690;BME280;32423;45.398;10.874;2023-03-12T10:30:19;100558.50;;;15.19;34.39
46690;BME280;32423;45.398;10.874;2023-03-12T10:33:12;100566.66;;;15.31;34.27
46690;BME280;32423;45.398;10.874;2023-03-12T10:36:12;100563.59;;;15.33;34.08
46690;BME280;32423;45.398;10.874;2023-03-12T10:39:05;100567.75;;;15.43;35.62
46690;BME280;32423;45.398;10.874;2023-03-12T10:42:03;100576.19;;;15.65;34.46
46690;BME280;32423;45.398;10.874;2023-03-12T10:48:06;100574.72;;;15.68;34.45
46690;BME280;32423;45.398;10.874;2023-03-12T10:51:09;100568.19;;;15.88;34.85
46690;BME280;32423;45.398;10.874;2023-03-12T10:54:01;100568.19;;;15.88;35.21
46690;BME280;32423;45.398;10.874;2023-03-12T10:57:12;100575.06;;;15.98;34.46
46690;BME280;32423;45.398;10.874;2023-03-12T11:00:05;100577.19;;;16.04;33.99
46690;BME280;32423;45.398;10.874;2023-03-12T11:03:16;100573.50;;;16.32;33.74
46690;BME280;32423;45.398;10.874;2023-03-12T11:06:10;100581.97;;;16.58;33.29
46690;BME280;32423;45.398;10.874;2023-03-12T11:12:03;100596.28;;;17.21;31.62
46690;BME280;32423;45.398;10.874;2023-03-12T11:15:24;100593.28;;;19.63;27.88
46690;BME280;32423;45.398;10.874;2023-03-12T11:18:21;100601.31;;;24.91;21.73
46690;BME280;32423;45.398;10.874;2023-03-12T11:21:12;100601.03;;;29.03;16.63
46690;BME280;32423;45.398;10.874;2023-03-12T11:24:10;100601.06;;;29.28;16.50
46690;BME280;32423;45.398;10.874;2023-03-12T11:27:15;100611.78;;;29.97;16.01
46690;BME280;32423;45.398;10.874;2023-03-12T11:30:15;100618.94;;;32.15;13.91
46690;BME280;32423;45.398;10.874;2023-03-12T11:33:08;100607.41;;;32.59;14.19
46690;BME280;32423;45.398;10.874;2023-03-12T11:36:02;100611.72;;;30.69;15.03
46690;BME280;32423;45.398;10.874;2023-03-12T11:41:57;100606.34;;;31.49;14.21
46690;BME280;32423;45.398;10.874;2023-03-12T11:45:00;100611.34;;;35.01;12.09
46690;BME280;32423;45.398;10.874;2023-03-12T12:05:37;100619.69;;;36.59;10.90
46690;BME280;32423;45.398;10.874;2023-03-12T12:08:39;100619.25;;;35.55;11.89
46690;BME280;32423;45.398;10.874;2023-03-12T12:11:41;100607.56;;;35.04;12.07
46690;BME280;32423;45.398;10.874;2023-03-12T12:17:46;100595.16;;;35.95;11.19
46690;BME280;32423;45.398;10.874;2023-03-12T12:30:14;100587.28;;;36.19;10.85
46690;BME280;32423;45.398;10.874;2023-03-12T12:33:25;100589.69;;;36.67;10.67
46690;BME280;32423;45.398;10.874;2023-03-12T12:36:20;100585.72;;;35.34;11.72
46690;BME280;32423;45.398;10.874;2023-03-12T12:39:29;100581.03;;;36.35;11.18
46690;BME280;32423;45.398;10.874;2023-03-12T12:42:17;100579.59;;;33.81;12.73
46690;BME280;32423;45.398;10.874;2023-03-12T12:45:10;100567.53;;;33.81;12.74
46690;BME280;32423;45.398;10.874;2023-03-12T12:48:06;100573.53;;;33.74;12.40
46690;BME280;32423;45.398;10.874;2023-03-12T12:50:57;100565.88;;;31.47;14.02
46690;BME280;32423;45.398;10.874;2023-03-12T12:57:05;100570.78;;;34.36;12.52
46690;BME280;32423;45.398;10.874;2023-03-12T13:03:00;100569.13;;;33.40;12.65
46690;BME280;32423;45.398;10.874;2023-03-12T13:06:03;100579.97;;;33.14;12.99
46690;BME280;32423;45.398;10.874;2023-03-12T13:08:57;100578.50;;;32.67;13.36
46690;BME280;32423;45.398;10.874;2023-03-12T13:11:49;100570.56;;;31.90;13.71
46690;BME280;32423;45.398;10.874;2023-03-12T13:14:41;100560.72;;;30.71;14.91
46690;BME280;32423;45.398;10.874;2023-03-12T13:17:37;100566.69;;;31.25;14.31
46690;BME280;32423;45.398;10.874;2023-03-12T13:23:57;100555.66;;;28.38;16.37
46690;BME280;32423;45.398;10.874;2023-03-12T13:27:14;100559.09;;;31.04;14.88
46690;BME280;32423;45.398;10.874;2023-03-12T13:33:16;100570.28;;;27.45;17.69
46690;BME280;32423;45.398;10.874;2023-03-12T13:36:21;100577.41;;;29.17;16.55
46690;BME280;32423;45.398;10.874;2023-03-12T13:39:18;100582.22;;;31.08;14.91
46690;BME280;32423;45.398;10.874;2023-03-12T13:42:26;100579.00;;;28.60;16.71
46690;BME280;32423;45.398;10.874;2023-03-12T13:45:27;100582.56;;;28.48;17.47
46690;BME280;32423;45.398;10.874;2023-03-12T13:48:17;100578.75;;;27.05;18.25
46690;BME280;32423;45.398;10.874;2023-03-12T13:51:14;100576.38;;;27.76;18.02
46690;BME280;32423;45.398;10.874;2023-03-12T13:54:04;100581.09;;;27.79;18.14
46690;BME280;32423;45.398;10.874;2023-03-12T13:56:59;100579.97;;;28.25;17.57
46690;BME280;32423;45.398;10.874;2023-03-12T13:59:51;100582.63;;;27.47;18.16
46690;BME280;32423;45.398;10.874;2023-03-12T14:02:41;100572.72;;;24.87;20.95
46690;BME280;32423;45.398;10.874;2023-03-12T14:05:34;100579.53;;;24.45;21.31
46690;BME280;32423;45.398;10.874;2023-03-12T14:14:40;100571.91;;;22.62;23.65
46690;BME280;32423;45.398;10.874;2023-03-12T14:17:37;100557.41;;;20.69;26.45
46690;BME280;32423;45.398;10.874;2023-03-12T14:20:30;100560.97;;;20.11;28.08
46690;BME280;32423;45.398;10.874;2023-03-12T14:23:31;100560.44;;;19.51;28.54
46690;BME280;32423;45.398;10.874;2023-03-12T14:26:23;100559.88;;;19.75;28.56
46690;BME280;32423;45.398;10.874;2023-03-12T14:32:22;100564.63;;;19.75;28.43
46690;BME280;32423;45.398;10.874;2023-03-12T14:35:27;100564.88;;;18.62;30.57
46690;BME280;32423;45.398;10.874;2023-03-12T14:41:13;100550.59;;;18.83;30.10
46690;BME280;32423;45.398;10.874;2023-03-12T14:44:09;100563.03;;;19.40;29.48
46690;BME280;32423;45.398;10.874;2023-03-12T14:47:08;100558.97;;;20.08;29.00
46690;BME280;32423;45.398;10.874;2023-03-12T14:50:01;100563.09;;;19.81;29.85
46690;BME280;32423;45.398;10.874;2023-03-12T14:52:53;100575.44;;;19.20;30.28
46690;BME280;32423;45.398;10.874;2023-03-12T14:55:43;100572.28;;;19.18;30.17
46690;BME280;32423;45.398;10.874;2023-03-12T14:58:35;100585.13;;;19.07;30.68
46690;BME280;32423;45.398;10.874;2023-03-12T15:01:32;100579.72;;;19.14;30.35
46690;BME280;32423;45.398;10.874;2023-03-12T15:04:25;100573.34;;;19.80;29.10
46690;BME280;32423;45.398;10.874;2023-03-12T15:07:17;100562.50;;;20.05;28.94
46690;BME280;32423;45.398;10.874;2023-03-12T15:10:17;100572.59;;;20.34;28.68
46690;BME280;32423;45.398;10.874;2023-03-12T15:13:11;100573.31;;;19.06;31.57
46690;BME280;32423;45.398;10.874;2023-03-12T15:16:04;100573.56;;;18.12;33.36
46690;BME280;32423;45.398;10.874;2023-03-12T15:18:56;100560.31;;;18.47;33.10
46690;BME280;32423;45.398;10.874;2023-03-12T15:21:48;100550.53;;;17.74;33.30
46690;BME280;32423;45.398;10.874;2023-03-12T15:24:40;100554.13;;;17.56;34.11
46690;BME280;32423;45.398;10.874;2023-03-12T15:27:32;100556.06;;;17.55;34.44
46690;BME280;32423;45.398;10.874;2023-03-12T15:30:25;100570.84;;;17.66;34.29
46690;BME280;32423;45.398;10.874;2023-03-12T15:39:11;100577.41;;;17.00;36.14
46690;BME280;32423;45.398;10.874;2023-03-12T15:42:09;100572.56;;;17.55;34.99
46690;BME280;32423;45.398;10.874;2023-03-12T15:45:03;100571.72;;;17.51;34.98
46690;BME280;32423;45.398;10.874;2023-03-12T15:47:55;100579.13;;;17.70;35.14
46690;BME280;32423;45.398;10.874;2023-03-12T15:50:47;100573.78;;;17.16;35.81
46690;BME280;32423;45.398;10.874;2023-03-12T15:53:39;100577.81;;;17.02;36.68
46690;BME280;32423;45.398;10.874;2023-03-12T15:56:31;100580.66;;;17.06;36.46
46690;BME280;32423;45.398;10.874;2023-03-12T15:59:26;100577.47;;;17.04;36.35
46690;BME280;32423;45.398;10.874;2023-03-12T16:02:32;100574.44;;;17.09;36.58
46690;BME280;32423;45.398;10.874;2023-03-12T16:05:26;100581.38;;;16.84;37.20
46690;BME280;32423;45.398;10.874;2023-03-12T16:08:21;100574.88;;;16.57;37.52
46690;BME280;32423;45.398;10.874;2023-03-12T16:11:17;100576.81;;;16.56;37.71
46690;BME280;32423;45.398;10.874;2023-03-12T16:14:19;100583.53;;;16.40;38.05